Time;durP1;ratioP1;P1;durP2;ratioP2;P2;SDS_P1;SDS_P2;PMS_P1;PMS_P2;Temp;Humidity;BMP_temperature;BMP_pressure;BME280_temperature;BME280_humidity;BME280_pressure;Samples;Min_cycle;Max_cycle;Signal;HPM_P1;HPM_P2
2023/02/27 00:01:06;;;;;;;0.40;0.40;;;;;;;1.14;56.88;99748.22;5115859;28;20126;-65
2023/02/27 00:03:35;;;;;;;0.50;0.50;;;;;;;1.15;57.10;99747.41;5115102;27;20036;-65
2023/02/27 00:06:04;;;;;;;0.73;0.67;;;;;;;1.19;56.75;99749.25;5115655;28;20485;-66
2023/02/27 00:08:33;;;;;;;0.50;0.50;;;;;;;1.20;57.02;99755.97;5115726;28;20067;-65
2023/02/27 00:11:03;;;;;;;25.97;1.43;;;;;;;1.17;56.57;99740.81;5116248;28;20043;-65
2023/02/27 00:13:32;;;;;;;0.40;0.40;;;;;;;1.17;56.42;99750.00;5115610;28;20308;-65
2023/02/27 00:16:01;;;;;;;0.50;0.50;;;;;;;1.18;57.10;99750.06;5115702;28;20040;-65
2023/02/27 00:18:30;;;;;;;0.38;0.38;;;;;;;1.17;56.91;99755.91;5115489;28;20040;-66
2023/02/27 00:20:59;;;;;;;1.40;1.30;;;;;;;1.18;56.69;99760.09;5115471;28;20112;-66
2023/02/27 00:23:28;;;;;;;1.08;1.08;;;;;;;1.19;56.88;99764.34;5115574;28;20072;-66
2023/02/27 00:25:59;;;;;;;0.50;0.50;;;;;;;1.18;56.64;99762.63;5115538;28;20512;-65
2023/02/27 00:28:30;;;;;;;0.50;0.50;;;;;;;1.19;57.07;99759.31;5115316;27;20052;-65
2023/02/27 00:30:59;;;;;;;2.45;2.28;;;;;;;1.16;57.15;99761.72;5115521;28;20402;-65
2023/02/27 00:33:28;;;;;;;0.53;0.53;;;;;;;1.19;56.41;99759.31;5115282;28;20052;-66
2023/02/27 00:35:57;;;;;;;0.57;0.57;;;;;;;1.22;56.97;99764.44;5115071;28;20346;-65
2023/02/27 00:38:28;;;;;;;1.48;0.93;;;;;;;1.27;56.56;99775.53;5115097;28;20044;-65
2023/02/27 00:40:58;;;;;;;0.45;0.45;;;;;;;1.23;56.44;99766.16;5115392;28;20128;-65
2023/02/27 00:43:27;;;;;;;0.90;0.90;;;;;;;1.21;56.44;99762.75;5115316;28;20035;-65
2023/02/27 00:45:58;;;;;;;0.77;0.77;;;;;;;1.24;56.66;99762.88;5113748;28;20139;-65
2023/02/27 00:48:29;;;;;;;0.60;0.60;;;;;;;1.22;56.40;99764.44;5114793;28;20055;-66
2023/02/27 00:50:58;;;;;;;0.40;0.40;;;;;;;1.21;56.66;99755.19;5113677;28;20486;-66
2023/02/27 00:53:26;;;;;;;1.23;1.20;;;;;;;1.20;56.24;99761.00;5113623;28;20039;-65
2023/02/27 00:55:55;;;;;;;0.87;0.87;;;;;;;1.22;56.12;99759.41;5114698;28;20047;-65
2023/02/27 00:58:24;;;;;;;0.57;0.57;;;;;;;1.21;56.40;99746.78;5114544;28;20076;-66
2023/02/27 01:00:54;;;;;;;0.40;0.40;;;;;;;1.22;56.23;99753.56;5114687;28;20280;-66
2023/02/27 01:03:25;;;;;;;0.38;0.38;;;;;;;1.23;55.69;99741.03;5114641;28;20079;-66
2023/02/27 01:05:54;;;;;;;0.30;0.30;;;;;;;1.24;56.10;99745.28;5113448;28;20048;-66
2023/02/27 01:08:25;;;;;;;1.85;1.00;;;;;;;1.27;55.64;99742.00;5114540;28;20498;-65
2023/02/27 01:10:54;;;;;;;0.50;0.50;;;;;;;1.28;55.87;99743.72;5115094;28;20085;-65
2023/02/27 01:13:24;;;;;;;1.33;1.30;;;;;;;1.22;56.17;99749.34;5113844;28;20276;-65
2023/02/27 01:15:53;;;;;;;0.40;0.40;;;;;;;1.17;55.54;99739.94;5114101;28;20109;-65
2023/02/27 01:18:22;;;;;;;0.90;0.73;;;;;;;1.18;55.90;99750.06;5114298;28;20036;-66
2023/02/27 01:20:54;;;;;;;1.60;1.50;;;;;;;1.19;55.89;99744.25;5113759;28;20449;-65
2023/02/27 01:23:23;;;;;;;0.40;0.40;;;;;;;1.18;56.22;99747.53;5113217;28;20512;-65
2023/02/27 01:25:52;;;;;;;0.35;0.35;;;;;;;1.18;56.09;99757.59;5113427;28;20044;-65
2023/02/27 01:28:21;;;;;;;0.30;0.30;;;;;;;1.19;56.06;99749.25;5113232;28;20401;-65
2023/02/27 01:30:50;;;;;;;0.30;0.30;;;;;;;1.16;55.64;99750.78;5114788;28;20047;-65
2023/02/27 01:33:18;;;;;;;4.10;1.80;;;;;;;1.17;55.71;99750.00;5114197;28;20334;-65
2023/02/27 01:35:47;;;;;;;0.40;0.40;;;;;;;1.18;55.40;99747.53;5114079;28;20040;-65
2023/02/27 01:38:18;;;;;;;1.10;1.02;;;;;;;1.19;56.26;99754.28;5114665;28;20389;-65
2023/02/27 01:40:47;;;;;;;0.93;0.90;;;;;;;1.19;56.03;99751.78;5113510;28;20090;-65
2023/02/27 01:43:18;;;;;;;0.47;0.47;;;;;;;1.20;55.75;99753.47;5114961;28;20043;-65
2023/02/27 01:45:47;;;;;;;0.35;0.35;;;;;;;1.21;55.69;99756.84;5112864;28;20046;-65
2023/02/27 01:48:22;;;;;;;0.50;0.50;;;;;;;1.18;56.30;99755.06;5114273;28;20130;-65
2023/02/27 01:50:55;;;;;;;1.05;1.02;;;;;;;1.15;56.35;99759.97;5113019;28;20685;-66
2023/02/27 01:53:27;;;;;;;0.50;0.50;;;;;;;1.12;56.12;99762.41;5113287;28;20074;-65
2023/02/27 01:56:05;;;;;;;0.40;0.40;;;;;;;1.11;55.67;99770.72;5113950;28;20044;-65
2023/02/27 01:58:34;;;;;;;0.30;0.30;;;;;;;1.12;55.94;99771.59;5112869;28;20163;-66
2023/02/27 02:01:03;;;;;;;0.52;0.52;;;;;;;1.14;55.76;99765.81;5112871;28;20043;-65
2023/02/27 02:03:37;;;;;;;1.30;1.13;;;;;;;1.17;55.83;99770.97;5113856;28;20522;-65
2023/02/27 02:06:08;;;;;;;0.50;0.50;;;;;;;1.15;55.83;99770.03;5113911;28;20067;-65
2023/02/27 02:08:43;;;;;;;0.60;0.60;;;;;;;1.06;55.52;99767.19;5112675;28;20112;-65
2023/02/27 02:11:13;;;;;;;0.50;0.50;;;;;;;1.12;55.90;99777.47;5112827;28;20054;-65
2023/02/27 02:13:42;;;;;;;0.50;0.50;;;;;;;1.15;56.10;99772.53;5113743;28;20455;-65
2023/02/27 02:16:27;;;;;;;0.98;0.95;;;;;;;1.01;56.17;99748.56;5113689;28;20392;-65
2023/02/27 02:19:12;;;;;;;0.47;0.47;;;;;;;1.11;55.63;99785.81;5114079;28;20048;-66
2023/02/27 02:22:07;;;;;;;1.40;1.20;;;;;;;1.07;55.71;99783.97;5112730;28;20139;-65
2023/02/27 02:25:01;;;;;;;0.32;0.32;;;;;;;1.07;55.94;99789.00;5080466;28;20048;-65
2023/02/27 02:27:46;;;;;;;1.23;1.15;;;;;;;1.05;56.04;99798.16;5116361;28;20040;-65
2023/02/27 02:30:47;;;;;;;0.55;0.55;;;;;;;1.07;56.78;99794.03;5117965;28;20470;-65
2023/02/27 02:33:39;;;;;;;0.40;0.40;;;;;;;1.07;56.23;99794.03;5117451;28;20044;-64
2023/02/27 02:36:29;;;;;;;0.70;0.70;;;;;;;1.04;56.25;99788.03;5118628;28;20122;-65
2023/02/27 02:39:38;;;;;;;2.78;1.40;;;;;;;1.01;56.75;99782.91;5116370;28;20039;-64
2023/02/27 02:42:16;;;;;;;1.65;1.55;;;;;;;0.97;56.13;99791.09;5117302;28;20051;-64
2023/02/27 02:44:55;;;;;;;0.50;0.50;;;;;;;0.98;56.49;99797.84;5117351;27;20092;-65
2023/02/27 02:47:33;;;;;;;0.40;0.40;;;;;;;0.98;56.20;99798.72;5116147;28;20089;-65
2023/02/27 02:50:11;;;;;;;0.60;0.60;;;;;;;0.98;56.23;99803.75;5117516;28;20048;-65
2023/02/27 02:52:51;;;;;;;0.50;0.50;;;;;;;0.98;56.32;99812.91;5116285;28;20554;-65
2023/02/27 02:55:28;;;;;;;0.75;0.75;;;;;;;0.99;56.57;99815.47;5118068;28;20524;-65
2023/02/27 02:58:04;;;;;;;0.60;0.60;;;;;;;1.00;56.54;99822.22;5115908;28;20088;-65
2023/02/27 03:00:38;;;;;;;0.77;0.77;;;;;;;1.02;55.88;99814.75;5116202;28;20477;-65
2023/02/27 03:03:13;;;;;;;1.10;0.85;;;;;;;1.00;56.06;99821.38;5115788;28;20052;-64
2023/02/27 03:05:50;;;;;;;0.50;0.50;;;;;;;0.98;56.22;99818.81;5115807;28;20054;-64
2023/02/27 03:08:23;;;;;;;0.50;0.50;;;;;;;0.94;56.93;99816.09;5118062;28;20523;-65
2023/02/27 03:10:58;;;;;;;0.88;0.88;;;;;;;0.91;56.75;99821.84;5117157;28;20527;-65
2023/02/27 03:13:33;;;;;;;0.77;0.77;;;;;;;0.91;56.61;99826.88;5115887;28;20047;-65
2023/02/27 03:16:08;;;;;;;0.70;0.70;;;;;;;0.92;56.92;99817.69;5115602;28;20081;-64
2023/02/27 03:18:41;;;;;;;0.40;0.40;;;;;;;0.93;57.40;99827.81;5115560;28;20039;-64
2023/02/27 03:21:15;;;;;;;0.82;0.82;;;;;;;0.94;57.24;99827.00;5116934;28;20143;-65
2023/02/27 03:23:47;;;;;;;0.50;0.50;;;;;;;0.91;56.79;99821.84;5115265;28;20170;-65
2023/02/27 03:26:22;;;;;;;1.35;1.25;;;;;;;0.92;57.45;99823.56;5115428;28;20100;-65
2023/02/27 03:28:59;;;;;;;1.05;1.05;;;;;;;0.88;57.16;99836.81;5116417;28;20058;-65
2023/02/27 03:31:38;;;;;;;0.50;0.50;;;;;;;0.91;57.56;99841.94;5115279;28;20051;-65
2023/02/27 03:34:15;;;;;;;0.90;0.90;;;;;;;0.96;57.43;99835.44;5116351;28;20058;-65
2023/02/27 03:36:49;;;;;;;0.57;0.57;;;;;;;0.92;57.99;99835.28;5115175;28;20092;-69
2023/02/27 03:39:27;;;;;;;0.40;0.40;;;;;;;0.88;58.01;99843.50;5115436;28;20472;-66
2023/02/27 03:42:10;;;;;;;0.40;0.40;;;;;;;0.84;58.14;99839.16;5116324;28;20047;-64
2023/02/27 03:45:00;;;;;;;0.50;0.50;;;;;;;0.84;58.90;99829.13;5116054;28;20126;-65
2023/02/27 03:47:30;;;;;;;0.30;0.30;;;;;;;0.81;58.89;99837.38;5115025;28;20047;-66
2023/02/27 03:49:59;;;;;;;0.50;0.50;;;;;;;0.83;58.75;99843.31;5115556;28;20048;-64
2023/02/27 03:52:31;;;;;;;1.38;0.57;;;;;;;0.82;58.80;99839.06;5116147;28;20047;-65
2023/02/27 03:55:07;;;;;;;0.40;0.40;;;;;;;0.83;59.09;99838.28;5115084;28;20105;-65
2023/02/27 03:57:38;;;;;;;0.45;0.45;;;;;;;0.85;59.09;99846.75;5114945;28;20073;-65
2023/02/27 04:00:10;;;;;;;0.40;0.40;;;;;;;0.87;59.27;99842.63;5115052;28;20082;-64
2023/02/27 04:02:45;;;;;;;0.50;0.50;;;;;;;0.85;58.80;99841.72;5115837;28;20130;-64
2023/02/27 04:05:18;;;;;;;0.40;0.40;;;;;;;0.86;58.69;99842.59;5115757;28;20052;-65
2023/02/27 04:08:13;;;;;;;0.80;0.80;;;;;;;0.85;59.14;99839.22;5115778;28;20051;-64
2023/02/27 04:11:01;;;;;;;0.70;0.70;;;;;;;0.84;59.19;99849.22;5116036;28;20130;-65
2023/02/27 04:13:54;;;;;;;1.33;1.27;;;;;;;0.86;59.12;99853.50;5115618;28;20058;-66
2023/02/27 04:16:45;;;;;;;1.20;1.10;;;;;;;0.85;59.33;99861.81;5115806;28;20062;-67
2023/02/27 04:19:21;;;;;;;0.45;0.45;;;;;;;0.90;59.59;99860.34;5114774;28;20501;-65
2023/02/27 04:22:02;;;;;;;0.93;0.93;;;;;;;0.92;58.97;99861.25;5115491;28;20050;-66
2023/02/27 04:24:36;;;;;;;0.70;0.70;;;;;;;0.93;59.35;99863.00;5115376;28;20044;-65
2023/02/27 04:27:17;;;;;;;0.50;0.50;;;;;;;0.89;59.24;99863.63;5115692;28;20047;-65
2023/02/27 04:29:56;;;;;;;0.40;0.40;;;;;;;0.89;59.81;99863.63;5115245;28;20055;-65
2023/02/27 04:32:33;;;;;;;0.60;0.60;;;;;;;0.92;59.46;99873.81;5115241;28;20047;-65
2023/02/27 04:35:07;;;;;;;0.52;0.52;;;;;;;0.91;59.81;99873.78;5115990;28;20454;-64
2023/02/27 04:37:42;;;;;;;0.35;0.35;;;;;;;0.93;59.35;99870.53;5115353;28;20113;-64
2023/02/27 04:40:16;;;;;;;1.00;0.98;;;;;;;0.94;59.65;99872.22;5115162;28;20105;-65
2023/02/27 04:42:49;;;;;;;0.50;0.50;;;;;;;0.93;59.93;99875.56;5115334;28;20047;-66
2023/02/27 04:45:23;;;;;;;0.43;0.43;;;;;;;0.96;59.83;99880.69;5114872;28;20044;-65
2023/02/27 04:47:58;;;;;;;0.70;0.70;;;;;;;0.93;59.72;99875.56;5114967;28;20066;-66
2023/02/27 04:50:34;;;;;;;1.08;1.00;;;;;;;0.95;60.12;99880.63;5115239;28;20043;-66
2023/02/27 04:53:09;;;;;;;7.13;1.65;;;;;;;0.90;60.06;99875.41;5114915;28;20138;-65
2023/02/27 04:55:44;;;;;;;0.98;0.98;;;;;;;0.96;59.57;99878.16;5115177;28;20127;-65
2023/02/27 04:58:18;;;;;;;1.38;1.27;;;;;;;0.98;59.97;99879.09;5114859;28;20036;-66
2023/02/27 05:00:53;;;;;;;0.30;0.30;;;;;;;0.91;59.55;99872.09;5115026;28;20130;-65
2023/02/27 05:03:26;;;;;;;0.68;0.68;;;;;;;0.95;59.96;99881.50;5114744;28;20412;-65
2023/02/27 05:06:00;;;;;;;0.40;0.40;;;;;;;0.98;59.66;99879.09;5115230;28;20051;-64
2023/02/27 05:08:35;;;;;;;0.40;0.40;;;;;;;1.00;59.92;99886.69;5114836;28;20118;-65
2023/02/27 05:11:11;;;;;;;0.60;0.60;;;;;;;0.98;59.69;99886.66;5114581;28;20043;-65
2023/02/27 05:13:45;;;;;;;0.65;0.65;;;;;;;0.99;59.97;99893.38;5114532;28;20054;-65
2023/02/27 05:16:23;;;;;;;1.23;1.13;;;;;;;0.96;60.17;99890.72;5114483;28;20126;-66
2023/02/27 05:18:52;;;;;;;3.88;3.00;;;;;;;0.92;60.09;99898.94;5114255;28;20127;-66
2023/02/27 05:21:28;;;;;;;0.65;0.65;;;;;;;0.93;60.13;99905.69;5114389;28;20390;-66
2023/02/27 05:24:09;;;;;;;0.70;0.70;;;;;;;0.94;60.38;99906.53;5114163;28;20131;-65
2023/02/27 05:27:04;;;;;;;0.45;0.45;;;;;;;0.93;60.66;99908.22;5114338;28;20135;-65
2023/02/27 05:29:40;;;;;;;0.47;0.47;;;;;;;0.93;60.13;99910.72;5114185;28;20053;-65
2023/02/27 05:32:24;;;;;;;4.15;1.35;;;;;;;0.99;60.26;99903.41;5114192;28;20131;-66
2023/02/27 05:34:57;;;;;;;1.20;1.10;;;;;;;1.00;60.45;99912.69;5114331;28;20124;-65
2023/02/27 05:37:31;;;;;;;1.40;1.30;;;;;;;1.00;60.39;99912.69;5114153;28;20051;-66
2023/02/27 05:40:07;;;;;;;2.17;2.03;;;;;;;1.02;60.76;99920.28;5114067;28;20040;-65
2023/02/27 05:42:42;;;;;;;0.80;0.80;;;;;;;0.99;60.46;99923.53;5114378;27;20530;-66
2023/02/27 05:45:15;;;;;;;0.55;0.55;;;;;;;0.98;60.58;99934.38;5114054;28;20054;-66
2023/02/27 05:47:50;;;;;;;2.30;1.13;;;;;;;0.99;60.33;99930.19;5114333;28;20396;-66
2023/02/27 05:50:25;;;;;;;0.90;0.90;;;;;;;0.99;60.10;99926.03;5114251;28;20075;-66
2023/02/27 05:52:58;;;;;;;3.22;3.00;;;;;;;1.00;60.50;99927.75;5114181;28;20056;-65
2023/02/27 05:55:33;;;;;;;0.63;0.63;;;;;;;1.05;61.04;99941.38;5114170;28;20039;-66
2023/02/27 05:58:10;;;;;;;0.40;0.40;;;;;;;1.04;60.50;99944.66;5114169;28;20504;-66
2023/02/27 06:00:43;;;;;;;0.40;0.40;;;;;;;1.02;60.60;99951.28;5115741;28;20066;-66
2023/02/27 06:03:14;;;;;;;0.50;0.50;;;;;;;0.99;60.46;99951.16;5117245;28;20389;-66
2023/02/27 06:05:44;;;;;;;1.83;1.15;;;;;;;1.00;60.62;99960.44;5118128;28;20146;-65
2023/02/27 06:08:13;;;;;;;0.68;0.68;;;;;;;0.90;61.05;99955.81;5118365;28;20040;-64
2023/02/27 06:10:41;;;;;;;0.53;0.53;;;;;;;0.90;61.51;99960.84;5117933;28;20035;-65
2023/02/27 06:13:10;;;;;;;0.95;0.95;;;;;;;0.89;61.44;99963.28;5117911;28;20494;-66
2023/02/27 06:15:39;;;;;;;0.50;0.50;;;;;;;0.86;61.02;99958.13;5117869;28;20034;-65
2023/02/27 06:18:09;;;;;;;1.42;1.33;;;;;;;0.92;61.19;99964.25;5117937;28;20040;-65
2023/02/27 06:20:40;;;;;;;2.13;1.92;;;;;;;1.06;61.52;99973.22;5117808;28;20127;-65
2023/02/27 06:23:09;;;;;;;0.57;0.57;;;;;;;1.08;60.93;99969.13;5117675;28;20071;-65
2023/02/27 06:25:40;;;;;;;0.50;0.50;;;;;;;1.15;61.01;99981.13;5117981;28;20050;-64
2023/02/27 06:28:10;;;;;;;2.20;2.05;;;;;;;1.22;61.31;99984.78;5117612;28;20490;-64
2023/02/27 06:30:39;;;;;;;0.63;0.63;;;;;;;1.30;60.75;99983.41;5117629;28;20067;-65
2023/02/27 06:33:08;;;;;;;1.20;0.93;;;;;;;1.35;60.24;99987.84;5117746;28;20044;-65
2023/02/27 06:35:37;;;;;;;2.55;2.35;;;;;;;1.43;60.64;99992.31;5117449;27;20084;-65
2023/02/27 06:38:07;;;;;;;2.63;1.50;;;;;;;1.49;60.61;99990.06;5117395;28;20075;-65
2023/02/27 06:40:37;;;;;;;0.50;0.50;;;;;;;1.60;59.99;99989.69;5117241;28;20050;-66
2023/02/27 06:43:06;;;;;;;0.45;0.45;;;;;;;1.63;59.86;99983.94;5117332;28;20120;-65
2023/02/27 06:45:35;;;;;;;0.50;0.50;;;;;;;1.58;59.57;99987.91;5117496;28;20068;-65
2023/02/27 06:48:04;;;;;;;1.40;1.33;;;;;;;1.60;59.22;99984.66;5117326;28;20043;-65
2023/02/27 06:50:32;;;;;;;0.70;0.70;;;;;;;1.64;59.48;99993.16;5117040;28;20122;-66
2023/02/27 06:53:01;;;;;;;0.73;0.73;;;;;;;1.78;59.80;99989.53;5117344;28;20047;-65
2023/02/27 06:55:31;;;;;;;0.80;0.80;;;;;;;1.87;59.10;99989.91;5117112;28;20039;-65
2023/02/27 06:58:00;;;;;;;0.30;0.30;;;;;;;1.95;58.29;99989.38;5117063;28;20135;-65
2023/02/27 07:00:29;;;;;;;0.98;0.98;;;;;;;2.00;59.00;99982.00;5117576;28;20141;-65
2023/02/27 07:02:58;;;;;;;0.60;0.60;;;;;;;2.09;58.09;99994.94;5117369;28;20055;-66
2023/02/27 07:05:26;;;;;;;0.40;0.40;;;;;;;2.06;58.42;99992.31;5117290;28;20116;-66
2023/02/27 07:07:55;;;;;;;1.07;1.07;;;;;;;2.11;57.99;99995.88;5116804;28;20035;-66
2023/02/27 07:10:26;;;;;;;0.30;0.30;;;;;;;2.18;58.39;100002.00;5116801;28;20051;-65
2023/02/27 07:12:56;;;;;;;0.40;0.40;;;;;;;2.25;58.24;100009.84;5116720;28;20071;-65
2023/02/27 07:15:25;;;;;;;0.20;0.20;;;;;;;2.18;57.58;100007.91;5116884;28;20150;-65
2023/02/27 07:17:54;;;;;;;1.57;1.47;;;;;;;2.23;58.05;100011.41;5117238;28;20116;-66
2023/02/27 07:20:23;;;;;;;1.00;1.00;;;;;;;2.25;57.82;100017.41;5116850;28;20040;-65
2023/02/27 07:22:51;;;;;;;0.82;0.80;;;;;;;2.34;57.88;100017.72;5116211;28;20050;-65
2023/02/27 07:25:20;;;;;;;0.97;0.93;;;;;;;2.35;57.25;100021.94;5116494;28;20040;-65
2023/02/27 07:27:50;;;;;;;0.40;0.40;;;;;;;2.40;57.36;100025.50;5117125;28;20280;-65
2023/02/27 07:30:21;;;;;;;0.52;0.52;;;;;;;2.54;56.25;100014.25;5116355;28;20040;-65
2023/02/27 07:32:50;;;;;;;0.43;0.43;;;;;;;2.53;55.59;100015.06;5116417;27;20039;-65
2023/02/27 07:35:19;;;;;;;1.17;1.15;;;;;;;2.65;55.42;100018.03;5116255;28;20131;-65
2023/02/27 07:37:48;;;;;;;0.90;0.90;;;;;;;2.81;55.34;100028.69;5115398;28;20071;-65
2023/02/27 07:40:17;;;;;;;0.85;0.85;;;;;;;2.82;54.08;100022.81;5116313;28;20063;-65
2023/02/27 07:42:48;;;;;;;2.35;1.60;;;;;;;2.88;53.85;100025.56;5116514;28;20405;-65
2023/02/27 07:45:21;;;;;;;0.70;0.70;;;;;;;2.66;52.97;99994.53;5116163;27;20039;-65
2023/02/27 07:47:50;;;;;;;0.47;0.47;;;;;;;2.91;52.84;100035.72;5116062;28;20043;-65
2023/02/27 07:50:19;;;;;;;0.30;0.30;;;;;;;2.85;52.56;100016.22;5116300;28;20044;-65
2023/02/27 07:52:48;;;;;;;0.90;0.90;;;;;;;3.04;52.76;100037.88;5116333;28;20042;-65
2023/02/27 07:55:17;;;;;;;1.27;1.17;;;;;;;3.17;52.96;100042.53;5116326;28;20108;-66
2023/02/27 07:57:46;;;;;;;3.95;1.70;;;;;;;3.18;52.35;100046.78;5116086;28;20765;-65
2023/02/27 08:00:16;;;;;;;0.50;0.50;;;;;;;3.36;51.72;100044.88;5115729;28;20052;-65
2023/02/27 08:02:46;;;;;;;0.40;0.40;;;;;;;3.51;51.34;100047.91;5116302;28;20034;-66
2023/02/27 08:05:15;;;;;;;0.85;0.85;;;;;;;3.56;51.45;100055.63;5115797;28;20134;-65
2023/02/27 08:07:44;;;;;;;0.80;0.80;;;;;;;3.54;50.10;100055.59;5115939;28;20122;-65
2023/02/27 08:10:15;;;;;;;0.30;0.30;;;;;;;3.49;49.77;100062.16;5115952;28;20472;-65
2023/02/27 08:12:44;;;;;;;0.55;0.55;;;;;;;3.68;49.50;100054.38;5114656;28;20131;-66
2023/02/27 08:15:13;;;;;;;0.43;0.43;;;;;;;3.86;49.58;100062.50;5106224;28;20040;-65
2023/02/27 08:17:41;;;;;;;0.40;0.40;;;;;;;4.15;49.55;100049.97;5095275;28;20508;-66
2023/02/27 08:20:13;;;;;;;0.57;0.57;;;;;;;4.30;49.21;100055.47;5095198;28;20086;-66
2023/02/27 08:22:42;;;;;;;0.40;0.40;;;;;;;4.26;48.19;100058.72;5094245;28;20059;-65
2023/02/27 08:25:11;;;;;;;0.85;0.85;;;;;;;4.35;48.30;100058.97;5099826;28;20052;-65
2023/02/27 08:27:40;;;;;;;0.30;0.30;;;;;;;4.51;48.09;100061.19;5095294;28;20032;-66
2023/02/27 08:33:25;;;;;;;0.32;0.32;;;;;;;4.49;46.90;100062.78;4709878;23;20044;-63
2023/02/27 08:35:56;;;;;;;0.52;0.52;;;;;;;4.42;46.63;100065.94;4916931;29;20040;-63
2023/02/27 08:38:24;;;;;;;0.40;0.40;;;;;;;4.49;46.67;100077.94;4899651;29;20511;-63
2023/02/27 08:40:53;;;;;;;0.73;0.73;;;;;;;4.46;46.02;100082.94;4915385;29;20048;-63
2023/02/27 08:43:23;;;;;;;0.63;0.63;;;;;;;4.27;45.89;100085.72;4918867;29;20036;-63
2023/02/27 08:45:52;;;;;;;2.72;0.95;;;;;;;4.15;46.39;100082.81;4913688;29;20048;-63
2023/02/27 08:48:23;;;;;;;0.40;0.40;;;;;;;4.12;46.22;100085.22;4912072;29;20095;-63
2023/02/27 08:50:52;;;;;;;0.30;0.30;;;;;;;4.21;45.95;100088.03;4908536;29;20288;-63
2023/02/27 08:53:22;;;;;;;0.30;0.30;;;;;;;4.36;46.01;100080.94;4900327;29;20057;-63
2023/02/27 08:55:52;;;;;;;0.50;0.50;;;;;;;4.69;46.44;100081.91;4918229;29;20063;-63
2023/02/27 08:58:21;;;;;;;0.93;0.93;;;;;;;4.82;45.85;100091.59;4918259;29;20048;-63
2023/02/27 09:00:50;;;;;;;0.30;0.30;;;;;;;4.67;45.23;100089.47;4915098;29;20092;-63
2023/02/27 09:03:19;;;;;;;0.30;0.30;;;;;;;4.58;45.45;100088.34;4907610;29;20047;-62
2023/02/27 09:05:48;;;;;;;0.40;0.40;;;;;;;4.74;46.14;100095.56;4898950;29;20052;-63
2023/02/27 09:08:17;;;;;;;0.60;0.60;;;;;;;4.84;45.62;100087.41;4898982;29;20040;-63
2023/02/27 09:10:47;;;;;;;0.90;0.82;;;;;;;4.70;45.44;100104.69;4899444;29;20439;-63
2023/02/27 09:13:16;;;;;;;2.17;0.68;;;;;;;4.63;45.46;100104.50;4899126;29;20569;-63
2023/02/27 09:15:47;;;;;;;2.83;2.63;;;;;;;4.37;45.03;100102.84;4911645;29;20044;-62
2023/02/27 09:18:16;;;;;;;0.55;0.55;;;;;;;4.52;46.15;100105.84;4917797;29;20131;-63
2023/02/27 09:20:45;;;;;;;0.50;0.50;;;;;;;4.49;45.41;100085.50;4917539;29;20044;-62
2023/02/27 09:23:13;;;;;;;1.30;1.20;;;;;;;4.63;45.51;100112.09;4917601;29;20131;-62
2023/02/27 09:25:42;;;;;;;1.80;0.73;;;;;;;4.66;45.37;100112.16;4917594;29;20056;-63
2023/02/27 09:28:12;;;;;;;0.30;0.30;;;;;;;4.75;45.49;100112.44;4917530;29;20103;-62
2023/02/27 09:30:41;;;;;;;0.35;0.35;;;;;;;4.59;45.31;100120.38;4917915;29;20366;-62
2023/02/27 09:33:10;;;;;;;0.30;0.30;;;;;;;4.52;45.37;100128.59;4916719;29;20554;-64
2023/02/27 09:35:39;;;;;;;0.40;0.40;;;;;;;4.42;45.36;100126.56;4910933;29;20036;-62
2023/02/27 09:38:08;;;;;;;0.37;0.37;;;;;;;4.35;44.96;100127.19;4917406;29;20048;-62
2023/02/27 09:40:40;;;;;;;0.65;0.65;;;;;;;4.35;44.96;100123.00;4917286;29;20883;-62
2023/02/27 09:43:16;;;;;;;2.83;1.35;;;;;;;4.22;45.26;100107.44;4917489;29;20052;-62
2023/02/27 09:45:47;;;;;;;0.50;0.50;;;;;;;4.48;45.77;100131.84;4916403;29;20055;-63
2023/02/27 09:48:30;;;;;;;0.40;0.40;;;;;;;4.54;46.04;100142.13;4917442;29;20062;-62
2023/02/27 09:51:00;;;;;;;0.30;0.30;;;;;;;4.43;44.87;100148.53;4917282;29;20047;-62
2023/02/27 09:53:32;;;;;;;0.25;0.25;;;;;;;4.47;45.51;100146.13;4917575;29;20123;-62
2023/02/27 09:56:08;;;;;;;6.72;1.40;;;;;;;4.49;45.10;100149.56;4915418;29;20411;-62
2023/02/27 09:58:51;;;;;;;0.30;0.30;;;;;;;4.68;45.56;100156.03;4917121;29;20054;-62
2023/02/27 10:01:23;;;;;;;0.40;0.40;;;;;;;4.81;44.84;100153.06;4917481;29;20402;-62
2023/02/27 10:04:17;;;;;;;0.73;0.73;;;;;;;4.64;45.27;100154.22;4917395;29;20071;-62
2023/02/27 10:06:49;;;;;;;0.35;0.35;;;;;;;4.61;45.13;100161.72;4909744;29;20043;-62
2023/02/27 10:09:31;;;;;;;0.30;0.30;;;;;;;4.76;44.55;100149.53;4915457;29;20048;-62
2023/02/27 10:12:15;;;;;;;0.20;0.20;;;;;;;4.91;44.94;100159.25;4909209;29;20048;-62
2023/02/27 10:14:50;;;;;;;0.75;0.75;;;;;;;4.92;44.64;100156.75;4917241;29;20087;-62
2023/02/27 10:17:27;;;;;;;0.30;0.30;;;;;;;4.97;44.48;100167.00;4917281;29;20602;-63
2023/02/27 10:19:59;;;;;;;0.43;0.43;;;;;;;4.81;44.78;100173.28;4917234;29;20083;-64
2023/02/27 10:22:31;;;;;;;0.73;0.73;;;;;;;5.01;45.11;100167.16;4911189;29;20040;-64
2023/02/27 10:25:04;;;;;;;0.30;0.30;;;;;;;5.28;44.94;100170.47;4899686;29;20044;-64
2023/02/27 10:27:40;;;;;;;;;;;;;;;5.32;44.72;100169.75;4906315;29;20513;-64
2023/02/27 10:30:22;;;;;;;0.30;0.30;;;;;;;5.32;44.09;100174.81;4916921;29;19923;-64
2023/02/27 10:33:08;;;;;;;0.40;0.40;;;;;;;5.53;44.61;100173.66;4916160;29;20553;-64
2023/02/27 10:35:38;;;;;;;;;;;;;;;5.77;44.32;100179.38;4917706;29;20062;-63
2023/02/27 10:38:13;;;;;;;2.55;1.27;;;;;;;5.78;43.76;100171.00;4916931;29;19955;-63
2023/02/27 10:40:43;;;;;;;0.40;0.40;;;;;;;5.93;43.45;100176.47;4916800;29;20137;-62
2023/02/27 10:43:17;;;;;;;1.30;1.20;;;;;;;5.79;43.36;100168.47;4917231;29;20056;-64
2023/02/27 10:45:47;;;;;;;0.30;0.30;;;;;;;5.65;43.20;100174.00;4916027;29;20108;-64
2023/02/27 10:48:16;;;;;;;0.35;0.35;;;;;;;5.60;43.14;100170.47;4920689;29;20505;-64
2023/02/27 10:50:49;;;;;;;0.73;0.63;;;;;;;5.50;42.42;100171.03;4919779;29;20068;-64
2023/02/27 10:53:21;;;;;;;0.40;0.40;;;;;;;5.31;42.84;100157.91;4920323;29;20055;-64
2023/02/27 10:56:00;;;;;;;0.40;0.40;;;;;;;5.29;42.80;100162.06;4920478;29;20055;-64
2023/02/27 10:58:32;;;;;;;0.85;0.85;;;;;;;5.23;42.63;100154.28;4920211;29;20079;-64
2023/02/27 11:01:06;;;;;;;0.35;0.35;;;;;;;5.48;42.82;100170.16;4920492;29;20407;-64
2023/02/27 11:03:37;;;;;;;0.90;0.88;;;;;;;5.44;42.14;100154.03;4917713;29;20063;-64
2023/02/27 11:06:13;;;;;;;0.70;0.70;;;;;;;5.58;42.61;100162.00;4920523;29;20063;-64
2023/02/27 11:08:42;;;;;;;0.88;0.88;;;;;;;5.74;42.85;100164.09;4920362;29;20444;-64
2023/02/27 11:11:13;;;;;;;0.60;0.60;;;;;;;5.66;42.26;100155.47;4920806;29;20036;-64
2023/02/27 11:13:44;;;;;;;0.70;0.70;;;;;;;5.52;42.63;100161.84;4919728;29;20131;-64
2023/02/27 11:16:16;;;;;;;0.20;0.20;;;;;;;5.47;42.88;100159.16;4919738;29;20055;-64
2023/02/27 11:18:48;;;;;;;1.30;1.20;;;;;;;5.60;42.59;100155.28;4919782;29;20052;-64
2023/02/27 11:21:28;;;;;;;0.28;0.28;;;;;;;5.58;42.24;100122.34;4919943;29;20511;-64
2023/02/27 11:24:01;;;;;;;1.10;1.00;;;;;;;5.83;42.39;100155.06;4919784;29;20068;-64
2023/02/27 11:26:34;;;;;;;0.30;0.30;;;;;;;5.76;42.24;100147.31;4920171;29;20052;-64
2023/02/27 11:29:13;;;;;;;0.20;0.20;;;;;;;5.71;42.04;100146.31;4915403;29;20473;-64
2023/02/27 11:31:52;;;;;;;0.40;0.40;;;;;;;5.72;42.32;100145.50;4900979;29;20152;-64
2023/02/27 11:34:29;;;;;;;0.30;0.30;;;;;;;5.93;42.19;100146.94;4900635;29;20410;-64
2023/02/27 11:37:02;;;;;;;2.72;1.83;;;;;;;5.99;41.94;100146.22;4901229;29;20491;-65
2023/02/27 11:39:35;;;;;;;0.30;0.30;;;;;;;5.95;41.75;100144.44;4909995;29;20084;-64
2023/02/27 11:42:17;;;;;;;4.75;0.98;;;;;;;5.95;41.87;100147.00;4919600;29;20052;-64
2023/02/27 11:45:00;;;;;;;0.45;0.45;;;;;;;5.68;41.43;100143.72;4918975;29;20529;-64
2023/02/27 11:47:33;;;;;;;1.40;1.30;;;;;;;5.92;41.77;100149.44;4919496;29;20048;-64
2023/02/27 11:50:32;;;;;;;0.30;0.30;;;;;;;5.92;40.81;100144.38;4919456;29;20406;-64
2023/02/27 11:53:24;;;;;;;2.75;0.82;;;;;;;5.84;41.03;100145.81;4919563;29;20470;-64
2023/02/27 11:55:58;;;;;;;0.80;0.80;;;;;;;6.30;41.31;100141.09;4919361;29;20052;-64
2023/02/27 11:58:33;;;;;;;0.35;0.35;;;;;;;6.25;40.78;100140.13;4918304;29;20052;-64
2023/02/27 12:01:06;;;;;;;0.40;0.40;;;;;;;6.13;40.97;100144.03;4919061;29;20048;-64
2023/02/27 12:03:47;;;;;;;1.23;0.82;;;;;;;6.16;41.48;100144.09;4918316;29;20047;-64
2023/02/27 12:06:20;;;;;;;1.08;1.05;;;;;;;6.47;41.95;100142.34;4918131;29;20111;-64
2023/02/27 12:08:55;;;;;;;0.40;0.40;;;;;;;6.37;41.74;100140.41;4911989;29;20063;-64
2023/02/27 12:11:28;;;;;;;0.70;0.63;;;;;;;6.43;41.65;100130.38;4907725;29;20063;-64